createdAt,value
2019-03-27T00:00:21.516Z,0
2019-03-27T00:01:21.630Z,0
2019-03-27T00:02:21.741Z,0
2019-03-27T00:03:21.927Z,0
2019-03-27T00:04:21.939Z,0
2019-03-27T00:05:22.067Z,0
2019-03-27T00:06:22.171Z,0
2019-03-27T00:07:22.285Z,0
2019-03-27T00:08:22.390Z,0
2019-03-27T00:09:22.544Z,0
2019-03-27T00:10:22.689Z,0
2019-03-27T00:11:22.651Z,0
2019-03-27T00:12:22.762Z,0
2019-03-27T00:13:22.912Z,0
2019-03-27T00:14:23.006Z,0
2019-03-27T00:15:23.152Z,0
2019-03-27T00:16:23.257Z,0
2019-03-27T00:17:23.349Z,0
2019-03-27T00:18:23.449Z,0
2019-03-27T00:19:23.592Z,0
2019-03-27T00:20:23.734Z,0
2019-03-27T00:21:23.733Z,0
2019-03-27T00:22:23.866Z,0
2019-03-27T00:23:23.995Z,0
2019-03-27T00:24:24.106Z,0
2019-03-27T00:25:24.237Z,0
2019-03-27T00:26:24.355Z,0
2019-03-27T00:27:24.522Z,0
2019-03-27T00:28:24.461Z,0
2019-03-27T00:29:24.608Z,0
2019-03-27T00:30:24.763Z,0
2019-03-27T00:31:24.868Z,0
2019-03-27T00:32:24.974Z,0
2019-03-27T00:33:25.094Z,0
2019-03-27T00:34:25.211Z,0
2019-03-27T00:35:25.331Z,0
2019-03-27T00:36:25.459Z,0
2019-03-27T00:37:25.585Z,0
2019-03-27T00:38:25.703Z,0
2019-03-27T00:39:25.834Z,0
2019-03-27T00:40:26.003Z,0
2019-03-27T00:41:25.951Z,0
2019-03-27T00:42:26.059Z,0
2019-03-27T00:43:26.169Z,0
2019-03-27T00:44:26.274Z,0
2019-03-27T00:45:27.232Z,0
2019-03-27T00:46:26.503Z,0
2019-03-27T00:47:26.676Z,0
2019-03-27T00:48:26.686Z,0
2019-03-27T00:49:26.637Z,0
2019-03-27T00:50:26.796Z,0
2019-03-27T00:51:26.891Z,0
2019-03-27T00:52:27.023Z,0
2019-03-27T00:53:27.116Z,0
2019-03-27T00:54:27.226Z,0
2019-03-27T00:55:27.380Z,0
2019-03-27T00:56:27.489Z,0
2019-03-27T00:57:27.605Z,0
2019-03-27T00:58:27.718Z,0
2019-03-27T00:59:27.844Z,0
2019-03-27T01:00:28.027Z,0
2019-03-27T01:01:27.961Z,0
2019-03-27T01:02:28.070Z,0
2019-03-27T01:03:28.173Z,0
2019-03-27T01:04:28.325Z,0
2019-03-27T01:05:28.459Z,0
2019-03-27T01:06:28.572Z,0
2019-03-27T01:07:28.685Z,0
2019-03-27T01:08:28.801Z,0
2019-03-27T01:09:28.913Z,0
2019-03-27T01:10:29.066Z,0
2019-03-27T01:11:29.033Z,0
2019-03-27T01:12:29.145Z,0
2019-03-27T01:13:29.261Z,0
2019-03-27T01:14:29.381Z,0
2019-03-27T01:15:39.062Z,0
2019-03-27T01:16:30.590Z,0
2019-03-27T01:17:29.699Z,0
2019-03-27T01:18:29.823Z,0
2019-03-27T01:19:29.963Z,0
2019-03-27T01:20:30.125Z,0
2019-03-27T01:21:30.077Z,0
2019-03-27T01:22:30.202Z,0
2019-03-27T01:23:30.311Z,0
2019-03-27T01:24:30.448Z,0
2019-03-27T01:25:30.593Z,0
2019-03-27T01:26:30.705Z,0
2019-03-27T01:27:30.817Z,0
2019-03-27T01:28:30.971Z,0
2019-03-27T01:29:31.075Z,0
2019-03-27T01:30:31.238Z,0
2019-03-27T01:31:31.342Z,0
2019-03-27T01:32:31.455Z,0
2019-03-27T01:33:31.550Z,0
2019-03-27T01:34:31.661Z,0
2019-03-27T01:35:32.810Z,0
2019-03-27T01:36:31.909Z,0
2019-03-27T01:37:32.018Z,0
2019-03-27T01:38:32.118Z,0
2019-03-27T01:39:32.233Z,0
2019-03-27T01:40:32.383Z,0
2019-03-27T01:41:32.498Z,0
2019-03-27T01:42:32.607Z,0
2019-03-27T01:43:32.727Z,0
2019-03-27T01:44:32.830Z,0
2019-03-27T01:45:32.957Z,0
2019-03-27T01:46:34.029Z,0
2019-03-27T01:47:33.145Z,0
2019-03-27T01:48:33.264Z,0
2019-03-27T01:49:33.407Z,0
2019-03-27T01:50:33.525Z,0
2019-03-27T01:51:33.633Z,0
2019-03-27T01:52:33.735Z,0
2019-03-27T01:53:33.858Z,0
2019-03-27T01:54:33.997Z,0
2019-03-27T01:55:34.138Z,0
2019-03-27T01:56:34.119Z,0
2019-03-27T01:57:34.209Z,0
2019-03-27T01:58:34.341Z,0
2019-03-27T01:59:34.441Z,0
2019-03-27T02:00:34.562Z,0
2019-03-27T02:01:34.667Z,0
2019-03-27T02:02:35.766Z,0
2019-03-27T02:03:34.870Z,0
2019-03-27T02:04:34.975Z,0
2019-03-27T02:05:35.147Z,0
2019-03-27T02:06:35.293Z,0
2019-03-27T02:07:35.421Z,0
2019-03-27T02:08:35.557Z,0
2019-03-27T02:09:35.653Z,0
2019-03-27T02:10:35.785Z,0
2019-03-27T02:11:35.790Z,0
2019-03-27T02:12:35.881Z,0
2019-03-27T02:13:35.994Z,0
2019-03-27T02:14:36.121Z,0
2019-03-27T02:15:36.233Z,0
2019-03-27T02:16:36.395Z,0
2019-03-27T02:17:36.536Z,0
2019-03-27T02:18:36.655Z,0
2019-03-27T02:19:36.763Z,0
2019-03-27T02:20:36.883Z,0
2019-03-27T02:21:37.015Z,0
2019-03-27T02:22:37.131Z,0
2019-03-27T02:23:37.255Z,0
2019-03-27T02:24:37.358Z,0
2019-03-27T02:25:37.475Z,0
2019-03-27T02:26:37.609Z,0
2019-03-27T02:27:37.718Z,0
2019-03-27T02:28:37.837Z,0
2019-03-27T02:29:37.965Z,0
2019-03-27T02:30:38.097Z,0
2019-03-27T02:31:38.088Z,0
2019-03-27T02:32:38.191Z,0
2019-03-27T02:33:38.318Z,0
2019-03-27T02:34:38.413Z,0
2019-03-27T02:35:38.529Z,0
2019-03-27T02:36:38.655Z,0
2019-03-27T02:37:38.769Z,0
2019-03-27T02:38:38.873Z,0
2019-03-27T02:39:38.984Z,0
2019-03-27T02:40:39.095Z,0
2019-03-27T02:41:39.262Z,0
2019-03-27T02:42:39.360Z,0
2019-03-27T02:43:39.473Z,0
2019-03-27T02:44:39.588Z,0
2019-03-27T02:45:39.698Z,0
2019-03-27T02:46:39.861Z,0
2019-03-27T02:47:39.937Z,0
2019-03-27T02:48:40.051Z,0
2019-03-27T02:49:40.142Z,0
2019-03-27T02:50:40.242Z,0
2019-03-27T02:51:40.262Z,0
2019-03-27T02:52:40.368Z,0
2019-03-27T02:53:40.517Z,0
2019-03-27T02:54:40.635Z,0
2019-03-27T02:55:40.744Z,0
2019-03-27T02:56:40.905Z,0
2019-03-27T02:57:41.035Z,0
2019-03-27T02:58:41.186Z,0
2019-03-27T02:59:41.252Z,0
2019-03-27T03:00:41.379Z,0
2019-03-27T03:01:41.490Z,0
2019-03-27T03:02:41.587Z,0
2019-03-27T03:03:41.690Z,0
2019-03-27T03:04:41.803Z,0
2019-03-27T03:05:41.912Z,0
2019-03-27T03:06:42.054Z,0
2019-03-27T03:07:42.215Z,0
2019-03-27T03:08:42.253Z,0
2019-03-27T03:09:42.365Z,0
2019-03-27T03:10:45.405Z,0
2019-03-27T03:11:42.626Z,0
2019-03-27T03:12:42.722Z,0
2019-03-27T03:13:42.825Z,0
2019-03-27T03:14:42.922Z,0
2019-03-27T03:15:43.038Z,0
2019-03-27T03:16:43.451Z,0
2019-03-27T03:17:43.282Z,0
2019-03-27T03:18:43.373Z,0
2019-03-27T03:19:43.506Z,0
2019-03-27T03:20:43.578Z,0
2019-03-27T03:21:43.578Z,0
2019-03-27T03:22:43.669Z,0
2019-03-27T03:23:43.784Z,0
2019-03-27T03:24:43.900Z,0
2019-03-27T03:25:43.996Z,0
2019-03-27T03:26:44.124Z,0
2019-03-27T03:27:44.210Z,0
2019-03-27T03:28:44.304Z,0
2019-03-27T03:29:44.409Z,0
2019-03-27T03:30:44.523Z,0
2019-03-27T03:31:44.629Z,0
2019-03-27T03:32:44.740Z,0
2019-03-27T03:33:44.835Z,0
2019-03-27T03:34:44.931Z,0
2019-03-27T03:35:45.025Z,0
2019-03-27T03:36:45.155Z,0
2019-03-27T03:37:46.253Z,0
2019-03-27T03:38:45.331Z,0
2019-03-27T03:39:45.439Z,0
2019-03-27T03:40:45.541Z,0
2019-03-27T03:41:45.682Z,0
2019-03-27T03:42:45.785Z,0
2019-03-27T03:43:45.892Z,0
2019-03-27T03:44:45.993Z,0
2019-03-27T03:45:46.095Z,0
2019-03-27T03:46:58.674Z,0
2019-03-27T03:47:47.309Z,0
2019-03-27T03:48:46.387Z,0
2019-03-27T03:49:46.488Z,0
2019-03-27T03:50:46.601Z,0
2019-03-27T03:51:46.755Z,0
2019-03-27T03:52:46.842Z,0
2019-03-27T03:53:46.942Z,0
2019-03-27T03:54:47.044Z,0
2019-03-27T03:55:47.147Z,0
2019-03-27T03:56:47.281Z,0
2019-03-27T03:57:47.384Z,0
2019-03-27T03:58:47.521Z,0
2019-03-27T03:59:47.620Z,0
2019-03-27T04:00:47.725Z,0
2019-03-27T04:01:47.868Z,0
2019-03-27T04:02:47.958Z,0
2019-03-27T04:03:48.164Z,0
2019-03-27T04:04:48.193Z,0
2019-03-27T04:05:48.313Z,0
2019-03-27T04:06:48.438Z,0
2019-03-27T04:07:48.535Z,0
2019-03-27T04:08:48.697Z,0
2019-03-27T04:09:48.644Z,0
2019-03-27T04:10:48.755Z,0
2019-03-27T04:11:48.903Z,0
2019-03-27T04:12:49.008Z,0
2019-03-27T04:13:49.166Z,0
2019-03-27T04:14:49.273Z,0
2019-03-27T04:15:49.402Z,0
2019-03-27T04:16:49.569Z,0
2019-03-27T04:17:49.691Z,0
2019-03-27T04:18:49.795Z,0
2019-03-27T04:19:49.919Z,0
2019-03-27T04:20:50.029Z,0
2019-03-27T04:21:50.193Z,0
2019-03-27T04:22:50.324Z,0
2019-03-27T04:23:50.424Z,0
2019-03-27T04:24:50.534Z,0
2019-03-27T04:26:51.765Z,0
2019-03-27T04:27:50.907Z,0
2019-03-27T04:28:51.009Z,0
2019-03-27T04:29:51.145Z,0
2019-03-27T04:30:51.260Z,0
2019-03-27T04:31:51.421Z,0
2019-03-27T04:32:51.537Z,0
2019-03-27T04:33:51.619Z,0
2019-03-27T04:34:52.733Z,0
2019-03-27T04:35:51.833Z,0
2019-03-27T04:36:51.998Z,0
2019-03-27T04:37:52.134Z,0
2019-03-27T04:38:52.243Z,0
2019-03-27T04:39:52.345Z,0
2019-03-27T04:40:52.440Z,0
2019-03-27T04:41:52.502Z,0
2019-03-27T04:42:52.640Z,1
2019-03-27T04:43:52.741Z,0
2019-03-27T04:44:52.849Z,0
2019-03-27T04:45:52.988Z,1
2019-03-27T04:46:53.115Z,1
2019-03-27T04:47:53.223Z,1
2019-03-27T04:48:53.334Z,1
2019-03-27T04:49:53.434Z,2
2019-03-27T04:50:53.556Z,2
2019-03-27T04:51:53.699Z,2
2019-03-27T04:52:53.802Z,3
2019-03-27T04:53:53.929Z,4
2019-03-27T04:54:54.042Z,5
2019-03-27T04:55:54.149Z,5
2019-03-27T04:56:54.278Z,6
2019-03-27T04:57:54.373Z,7
2019-03-27T04:58:54.493Z,8
2019-03-27T04:59:54.662Z,10
2019-03-27T05:00:54.764Z,12
2019-03-27T05:01:54.911Z,15
2019-03-27T05:02:55.997Z,17
2019-03-27T05:03:55.106Z,20
2019-03-27T05:04:55.209Z,24
2019-03-27T05:05:55.311Z,28
2019-03-27T05:06:55.496Z,33
2019-03-27T05:07:55.471Z,37
2019-03-27T05:08:55.583Z,41
2019-03-27T05:09:55.687Z,46
2019-03-27T05:10:55.812Z,53
2019-03-27T05:11:55.952Z,61
2019-03-27T05:12:56.075Z,68
2019-03-27T05:13:56.207Z,75
2019-03-27T05:14:56.318Z,87
2019-03-27T05:15:56.470Z,96
2019-03-27T05:16:57.611Z,111
2019-03-27T05:17:56.713Z,120
2019-03-27T05:18:56.814Z,135
2019-03-27T05:19:57.014Z,148
2019-03-27T05:20:56.975Z,167
2019-03-27T05:21:56.992Z,178
2019-03-27T05:22:56.979Z,199
2019-03-27T05:23:57.021Z,216
2019-03-27T05:24:57.165Z,234
2019-03-27T05:25:57.309Z,247
2019-03-27T05:26:57.482Z,256
2019-03-27T05:27:57.523Z,258
2019-03-27T05:28:57.525Z,273
2019-03-27T05:29:57.543Z,291
2019-03-27T05:30:57.686Z,321
2019-03-27T05:31:57.797Z,351
2019-03-27T05:32:57.871Z,378
2019-03-27T05:33:57.939Z,399
2019-03-27T05:34:57.985Z,417
2019-03-27T05:35:58.033Z,414
2019-03-27T05:36:58.109Z,417
2019-03-27T05:37:58.171Z,439
2019-03-27T05:38:58.220Z,447
2019-03-27T05:39:58.267Z,463
2019-03-27T05:40:58.337Z,499
2019-03-27T05:41:58.419Z,505
2019-03-27T05:43:00.773Z,527
2019-03-27T05:43:58.507Z,540
2019-03-27T05:44:58.550Z,547
2019-03-27T05:45:58.592Z,596
2019-03-27T05:46:58.734Z,672
2019-03-27T05:47:59.977Z,716
2019-03-27T05:48:58.824Z,773
2019-03-27T05:49:58.891Z,775
2019-03-27T05:50:58.939Z,801
2019-03-27T05:51:59.014Z,799
2019-03-27T05:52:59.093Z,872
2019-03-27T05:53:59.149Z,1013
2019-03-27T05:54:59.201Z,1069
2019-03-27T05:55:59.270Z,1157
2019-03-27T05:56:59.353Z,1279
2019-03-27T05:57:59.416Z,1429
2019-03-27T05:58:59.468Z,1448
2019-03-27T05:59:59.554Z,1514
2019-03-27T06:00:59.618Z,1488
2019-03-27T06:01:59.707Z,1482
2019-03-27T06:02:59.765Z,1516
2019-03-27T06:03:59.840Z,1604
2019-03-27T06:04:59.877Z,1636
2019-03-27T06:05:59.928Z,1802
2019-03-27T06:07:00.012Z,2007
2019-03-27T06:08:00.114Z,1938
2019-03-27T06:09:01.167Z,1932
2019-03-27T06:10:00.415Z,1892
2019-03-27T06:11:00.232Z,1786
2019-03-27T06:12:00.310Z,1808
2019-03-27T06:13:00.351Z,1798
2019-03-27T06:14:00.420Z,1824
2019-03-27T06:15:00.463Z,1640
2019-03-27T06:16:00.506Z,1626
2019-03-27T06:17:00.577Z,1803
2019-03-27T06:18:12.445Z,1702
2019-03-27T06:19:01.671Z,1574
2019-03-27T06:20:00.725Z,1646
2019-03-27T06:21:00.822Z,1796
2019-03-27T06:22:00.889Z,1807
2019-03-27T06:23:00.990Z,1986
2019-03-27T06:24:01.045Z,1769
2019-03-27T06:25:01.086Z,1861
2019-03-27T06:26:01.124Z,1990
2019-03-27T06:27:01.189Z,1823
2019-03-27T06:28:01.244Z,1825
2019-03-27T06:29:01.286Z,1697
2019-03-27T06:30:01.360Z,1645
2019-03-27T06:31:01.421Z,1659
2019-03-27T06:32:01.495Z,1619
2019-03-27T06:33:01.553Z,1665
2019-03-27T06:34:01.594Z,1874
2019-03-27T06:35:02.642Z,1907
2019-03-27T06:36:01.696Z,2057
2019-03-27T06:37:01.757Z,1857
2019-03-27T06:38:01.813Z,1688
2019-03-27T06:39:01.890Z,1618
2019-03-27T06:40:01.925Z,1623
2019-03-27T06:41:01.972Z,1582
2019-03-27T06:42:02.075Z,1715
2019-03-27T06:43:02.121Z,1836
2019-03-27T06:44:02.243Z,1905
2019-03-27T06:45:02.278Z,1853
2019-03-27T06:46:02.340Z,2059
2019-03-27T06:47:02.395Z,2082
2019-03-27T06:48:02.492Z,2180
2019-03-27T06:49:02.515Z,2555
2019-03-27T06:50:02.579Z,2592
2019-03-27T06:51:02.635Z,2320
2019-03-27T06:52:02.706Z,2359
2019-03-27T06:53:02.758Z,2672
2019-03-27T06:54:02.781Z,2855
2019-03-27T06:55:02.829Z,2817
2019-03-27T06:56:02.869Z,2845
2019-03-27T06:57:02.950Z,2974
2019-03-27T06:58:02.989Z,2847
2019-03-27T06:59:03.031Z,2932
2019-03-27T07:00:03.076Z,2962
2019-03-27T07:01:03.113Z,3047
2019-03-27T07:02:03.211Z,3008
2019-03-27T07:03:03.254Z,3084
2019-03-27T07:04:10.162Z,3230
2019-03-27T07:05:03.361Z,3344
2019-03-27T07:06:03.459Z,3536
2019-03-27T07:07:03.565Z,3972
2019-03-27T07:08:03.616Z,4176
2019-03-27T07:09:03.655Z,4282
2019-03-27T07:10:03.701Z,4924
2019-03-27T07:11:03.745Z,4641
2019-03-27T07:12:03.811Z,4225
2019-03-27T07:13:04.847Z,4343
2019-03-27T07:14:03.875Z,4209
2019-03-27T07:15:03.914Z,3885
2019-03-27T07:16:04.085Z,4343
2019-03-27T07:17:03.988Z,4110
2019-03-27T07:18:05.016Z,3944
2019-03-27T07:19:04.094Z,4547
2019-03-27T07:20:04.141Z,4641
2019-03-27T07:21:04.172Z,4542
2019-03-27T07:22:04.245Z,5194
2019-03-27T07:23:04.288Z,5604
2019-03-27T07:24:04.361Z,6331
2019-03-27T07:25:04.402Z,5525
2019-03-27T07:26:04.464Z,5137
2019-03-27T07:27:04.536Z,4784
2019-03-27T07:28:04.588Z,3909
2019-03-27T07:29:04.629Z,3975
2019-03-27T07:30:04.671Z,3998
2019-03-27T07:31:04.716Z,4166
2019-03-27T07:32:04.870Z,4296
2019-03-27T07:33:04.918Z,4311
2019-03-27T07:34:05.982Z,3944
2019-03-27T07:35:05.148Z,4139
2019-03-27T07:36:05.021Z,4236
2019-03-27T07:37:05.085Z,4506
2019-03-27T07:38:05.124Z,4455
2019-03-27T07:39:10.686Z,5152
2019-03-27T07:40:05.203Z,5836
2019-03-27T07:41:05.246Z,5711
2019-03-27T07:42:05.337Z,5120
2019-03-27T07:43:05.387Z,4465
2019-03-27T07:44:05.447Z,4236
2019-03-27T07:45:05.576Z,4242
2019-03-27T07:46:05.552Z,4345
2019-03-27T07:47:05.620Z,4333
2019-03-27T07:48:05.655Z,5040
2019-03-27T07:49:05.702Z,6287
2019-03-27T07:50:05.739Z,6713
2019-03-27T07:51:05.794Z,6805
2019-03-27T07:52:05.881Z,7179
2019-03-27T07:53:05.935Z,7891
2019-03-27T07:54:05.970Z,8542
2019-03-27T07:55:18.618Z,8216
2019-03-27T07:56:07.027Z,7498
2019-03-27T07:57:06.093Z,7440
2019-03-27T07:58:06.132Z,8112
2019-03-27T07:59:06.201Z,8853
2019-03-27T08:00:06.275Z,8922
2019-03-27T08:01:06.315Z,8667
2019-03-27T08:02:06.377Z,8167
2019-03-27T08:03:06.416Z,7995
2019-03-27T08:04:06.486Z,7119
2019-03-27T08:05:06.553Z,6004
2019-03-27T08:06:06.597Z,6010
2019-03-27T08:07:06.694Z,6507
2019-03-27T08:08:07.798Z,7582
2019-03-27T08:09:06.854Z,8276
2019-03-27T08:10:06.901Z,8959
2019-03-27T08:11:06.939Z,8848
2019-03-27T08:12:07.009Z,8854
2019-03-27T08:13:07.059Z,11203
2019-03-27T08:14:07.100Z,12786
2019-03-27T08:15:07.154Z,11326
2019-03-27T08:16:07.193Z,11116
2019-03-27T08:17:07.275Z,11112
2019-03-27T08:18:07.321Z,11119
2019-03-27T08:19:08.199Z,11195
2019-03-27T08:20:07.387Z,11302
2019-03-27T08:21:07.421Z,16736
2019-03-27T08:22:07.515Z,9945
2019-03-27T08:23:07.548Z,7444
2019-03-27T08:24:07.585Z,6499
2019-03-27T08:25:07.655Z,5985
2019-03-27T08:26:07.720Z,6013
2019-03-27T08:27:07.802Z,6123
2019-03-27T08:28:07.834Z,6164
2019-03-27T08:29:07.880Z,6599
2019-03-27T08:30:07.921Z,9248
2019-03-27T08:31:07.962Z,32080
2019-03-27T08:32:08.015Z,18576
2019-03-27T08:33:08.077Z,16480
2019-03-27T08:34:08.125Z,16552
2019-03-27T08:35:08.167Z,10004
2019-03-27T08:36:08.207Z,11720
2019-03-27T08:37:08.268Z,10996
2019-03-27T08:38:08.317Z,10504
2019-03-27T08:39:08.356Z,10649
2019-03-27T08:40:08.405Z,11025
2019-03-27T08:41:08.446Z,10882
2019-03-27T08:42:08.533Z,10724
2019-03-27T08:43:20.492Z,10786
2019-03-27T08:44:09.597Z,12137
2019-03-27T08:45:08.657Z,30648
2019-03-27T08:46:08.707Z,17824
2019-03-27T08:47:08.777Z,33832
2019-03-27T08:48:08.842Z,21640
2019-03-27T08:49:21.072Z,17200
2019-03-27T08:50:09.882Z,12478
2019-03-27T08:51:08.940Z,11638
2019-03-27T08:52:09.005Z,14002
2019-03-27T08:53:09.076Z,14236
2019-03-27T08:54:09.125Z,12911
2019-03-27T08:55:09.195Z,27776
2019-03-27T08:56:09.225Z,8632
2019-03-27T08:57:09.356Z,8876
2019-03-27T08:58:09.419Z,9417
2019-03-27T08:59:09.446Z,18448
2019-03-27T09:00:09.511Z,16840
2019-03-27T09:01:10.541Z,11771
2019-03-27T09:02:09.606Z,7091
2019-03-27T09:03:09.677Z,14686
2019-03-27T09:04:09.752Z,15450
2019-03-27T09:05:09.824Z,13772
2019-03-27T09:06:09.918Z,14434
2019-03-27T09:07:09.987Z,25496
2019-03-27T09:08:10.080Z,31400
2019-03-27T09:09:10.231Z,30312
2019-03-27T09:10:10.272Z,27872
2019-03-27T09:11:10.321Z,22880
2019-03-27T09:12:10.424Z,13144
2019-03-27T09:13:10.480Z,11365
2019-03-27T09:14:10.525Z,10999
2019-03-27T09:15:11.561Z,18488
2019-03-27T09:16:10.592Z,22208
2019-03-27T09:17:10.656Z,10667
2019-03-27T09:18:10.695Z,8942
2019-03-27T09:19:10.750Z,7106
2019-03-27T09:20:10.789Z,5981
2019-03-27T09:21:10.856Z,15840
2019-03-27T09:22:10.908Z,14456
2019-03-27T09:23:10.951Z,14832
2019-03-27T09:24:10.997Z,10807
2019-03-27T09:25:11.030Z,11217
2019-03-27T09:26:11.114Z,17384
2019-03-27T09:27:11.238Z,16620
2019-03-27T09:28:11.274Z,22024
2019-03-27T09:29:11.313Z,18344
2019-03-27T09:30:11.361Z,17528
2019-03-27T09:31:11.415Z,24864
2019-03-27T09:32:11.485Z,29232
2019-03-27T09:33:11.554Z,19104
2019-03-27T09:34:11.640Z,11097
2019-03-27T09:35:11.678Z,22176
2019-03-27T09:36:11.813Z,31800
2019-03-27T09:37:11.806Z,27160
2019-03-27T09:38:11.855Z,30952
2019-03-27T09:39:11.901Z,34832
2019-03-27T09:40:11.965Z,33816
2019-03-27T09:41:12.009Z,27040
2019-03-27T09:42:13.069Z,13326
2019-03-27T09:43:12.103Z,16776
2019-03-27T09:44:12.196Z,10735
2019-03-27T09:45:12.192Z,11807
2019-03-27T09:46:12.233Z,19104
2019-03-27T09:47:12.319Z,17856
2019-03-27T09:48:12.362Z,20808
2019-03-27T09:49:12.430Z,30968
2019-03-27T09:50:12.480Z,40360
2019-03-27T09:51:12.527Z,43192
2019-03-27T09:52:12.611Z,27904
2019-03-27T09:53:12.695Z,26488
2019-03-27T09:54:12.748Z,35960
2019-03-27T09:55:12.814Z,37592
2019-03-27T09:56:18.734Z,38008
2019-03-27T09:57:12.990Z,32432
2019-03-27T09:58:13.066Z,17128
2019-03-27T09:59:13.145Z,17032
2019-03-27T10:00:13.208Z,13581
2019-03-27T10:01:13.263Z,17688
2019-03-27T10:02:13.348Z,33952
2019-03-27T10:03:13.407Z,29448
2019-03-27T10:04:13.446Z,32864
2019-03-27T10:05:13.489Z,43176
2019-03-27T10:06:13.528Z,27264
2019-03-27T10:07:13.594Z,24232
2019-03-27T10:08:13.644Z,37464
2019-03-27T10:09:13.691Z,46824
2019-03-27T10:10:13.741Z,12941
2019-03-27T10:11:13.791Z,8557
2019-03-27T10:12:14.847Z,6893
2019-03-27T10:13:13.893Z,6904
2019-03-27T10:14:13.941Z,7170
2019-03-27T10:15:14.099Z,24680
2019-03-27T10:16:14.129Z,17256
2019-03-27T10:17:14.193Z,21656
2019-03-27T10:18:14.208Z,29632
2019-03-27T10:19:14.362Z,8196
2019-03-27T10:20:14.386Z,8098
2019-03-27T10:21:14.524Z,9234
2019-03-27T10:22:14.495Z,11404
2019-03-27T10:23:14.531Z,12171
2019-03-27T10:24:14.595Z,39432
2019-03-27T10:25:14.607Z,45640
2019-03-27T10:26:14.683Z,43304
2019-03-27T10:27:14.762Z,34296
2019-03-27T10:28:14.880Z,22944
2019-03-27T10:29:14.921Z,39768
2019-03-27T10:30:14.948Z,18984
2019-03-27T10:31:14.983Z,17384
2019-03-27T10:32:15.152Z,22976
2019-03-27T10:33:15.477Z,10715
2019-03-27T10:34:15.260Z,8100
2019-03-27T10:35:15.346Z,6605
2019-03-27T10:36:15.407Z,6379
2019-03-27T10:37:15.476Z,6119
2019-03-27T10:38:15.518Z,6467
2019-03-27T10:39:15.595Z,7163
2019-03-27T10:40:15.670Z,7339
2019-03-27T10:41:15.750Z,9024
2019-03-27T10:42:15.871Z,10716
2019-03-27T10:43:15.895Z,14964
2019-03-27T10:44:17.472Z,65535
2019-03-27T10:45:15.885Z,65535
2019-03-27T10:46:16.012Z,53048
2019-03-27T10:47:16.140Z,47280
2019-03-27T10:48:16.187Z,41424
2019-03-27T10:49:16.236Z,29008
2019-03-27T10:50:17.747Z,14345
2019-03-27T10:51:16.410Z,12597
2019-03-27T10:52:16.499Z,11324
2019-03-27T10:53:16.511Z,9975
2019-03-27T10:54:16.562Z,9245
2019-03-27T10:55:16.610Z,8678
2019-03-27T10:56:16.660Z,8097
2019-03-27T10:57:16.722Z,8513
2019-03-27T10:58:16.812Z,8858
2019-03-27T10:59:16.858Z,9572
2019-03-27T11:00:16.976Z,10698
2019-03-27T11:01:17.051Z,12549
2019-03-27T11:02:17.100Z,14012
2019-03-27T11:03:17.147Z,17136
2019-03-27T11:04:17.192Z,18760
2019-03-27T11:05:17.225Z,23808
2019-03-27T11:06:17.246Z,41504
2019-03-27T11:07:17.473Z,25288
2019-03-27T11:08:17.488Z,27384
2019-03-27T11:09:17.518Z,26600
2019-03-27T11:10:17.603Z,41624
2019-03-27T11:11:17.637Z,31288
2019-03-27T11:12:17.711Z,36816
2019-03-27T11:13:17.733Z,21080
2019-03-27T11:14:17.801Z,16520
2019-03-27T11:15:18.881Z,17024
2019-03-27T11:16:17.954Z,17288
2019-03-27T11:17:18.061Z,19720
2019-03-27T11:18:18.022Z,20488
2019-03-27T11:19:18.081Z,21368
2019-03-27T11:20:30.174Z,25384
2019-03-27T11:21:19.141Z,29776
2019-03-27T11:22:18.259Z,30296
2019-03-27T11:23:18.317Z,33128
2019-03-27T11:24:18.357Z,30424
2019-03-27T11:25:18.450Z,30448
2019-03-27T11:26:18.508Z,32928
2019-03-27T11:27:18.602Z,31968
2019-03-27T11:28:18.704Z,37216
2019-03-27T11:29:18.744Z,28296
2019-03-27T11:30:18.788Z,27984
2019-03-27T11:31:18.843Z,35984
2019-03-27T11:32:18.888Z,45464
2019-03-27T11:33:19.006Z,38224
2019-03-27T11:34:20.045Z,33992
2019-03-27T11:35:19.094Z,47504
2019-03-27T11:36:19.160Z,47664
2019-03-27T11:37:19.213Z,54360
2019-03-27T11:38:19.325Z,51680
2019-03-27T11:39:19.408Z,65535
2019-03-27T11:40:19.486Z,63216
2019-03-27T11:41:19.566Z,52328
2019-03-27T11:42:19.668Z,34792
2019-03-27T11:43:19.812Z,30336
2019-03-27T11:44:19.883Z,28920
2019-03-27T11:45:20.014Z,30944
2019-03-27T11:46:20.942Z,43064
2019-03-27T11:47:20.972Z,35416
2019-03-27T11:48:20.052Z,25344
2019-03-27T11:49:20.094Z,23920
2019-03-27T11:50:20.136Z,27304
2019-03-27T11:51:20.180Z,28632
2019-03-27T11:52:20.243Z,39504
2019-03-27T11:53:21.324Z,50224
2019-03-27T11:54:20.409Z,45488
2019-03-27T11:55:20.476Z,54376
2019-03-27T11:56:20.516Z,45072
2019-03-27T11:57:20.569Z,39888
2019-03-27T11:58:20.642Z,36584
2019-03-27T11:59:20.689Z,49400
2019-03-27T12:00:20.737Z,45776
2019-03-27T12:01:20.788Z,51288
2019-03-27T12:02:21.826Z,65535
2019-03-27T12:03:20.893Z,58512
2019-03-27T12:04:20.949Z,65535
2019-03-27T12:05:20.994Z,65535
2019-03-27T12:06:21.050Z,59816
2019-03-27T12:07:21.082Z,56440
2019-03-27T12:08:21.150Z,59576
2019-03-27T12:09:21.212Z,64480
2019-03-27T12:10:21.251Z,65535
2019-03-27T12:11:21.330Z,65535
2019-03-27T12:12:21.383Z,65535
2019-03-27T12:13:21.462Z,63712
2019-03-27T12:14:21.508Z,64664
2019-03-27T12:15:21.552Z,65535
2019-03-27T12:16:21.616Z,65535
2019-03-27T12:17:21.660Z,62120
2019-03-27T12:18:21.735Z,60360
2019-03-27T12:19:22.788Z,63344
2019-03-27T12:20:21.858Z,65535
2019-03-27T12:21:21.908Z,65535
2019-03-27T12:22:22.011Z,65535
2019-03-27T12:23:22.089Z,65535
2019-03-27T12:24:22.159Z,65535
2019-03-27T12:25:22.207Z,65535
2019-03-27T12:26:22.260Z,65535
2019-03-27T12:27:22.299Z,65535
2019-03-27T12:28:22.364Z,61320
2019-03-27T12:29:22.402Z,59808
2019-03-27T12:30:22.462Z,63808
2019-03-27T12:31:22.527Z,65535
2019-03-27T12:32:24.998Z,65535
2019-03-27T12:33:22.688Z,64472
2019-03-27T12:34:22.732Z,61024
2019-03-27T12:35:22.778Z,65535
2019-03-27T12:36:22.842Z,65535
2019-03-27T12:37:22.883Z,65535
2019-03-27T12:38:22.982Z,51512
2019-03-27T12:39:23.015Z,32000
2019-03-27T12:40:23.056Z,21768
2019-03-27T12:41:23.137Z,18608
2019-03-27T12:42:24.174Z,16712
2019-03-27T12:43:23.235Z,14823
2019-03-27T12:44:23.280Z,15830
2019-03-27T12:45:23.336Z,15074
2019-03-27T12:46:23.382Z,15167
2019-03-27T12:47:23.496Z,14105
2019-03-27T12:48:23.595Z,13509
2019-03-27T12:49:24.635Z,12921
2019-03-27T12:50:23.713Z,11756
2019-03-27T12:51:23.756Z,11368
2019-03-27T12:52:23.793Z,11204
2019-03-27T12:53:23.953Z,10998
2019-03-27T12:54:23.852Z,10715
2019-03-27T12:55:23.938Z,10639
2019-03-27T12:56:24.006Z,10815
2019-03-27T12:57:24.071Z,11421
2019-03-27T12:58:24.181Z,11699
2019-03-27T12:59:24.244Z,11804
2019-03-27T13:00:24.523Z,12142
2019-03-27T13:01:24.422Z,12878
2019-03-27T13:02:24.502Z,13063
2019-03-27T13:03:24.608Z,13251
2019-03-27T13:04:24.662Z,13524
2019-03-27T13:05:24.710Z,12106
2019-03-27T13:06:24.754Z,11490
2019-03-27T13:07:24.798Z,12464
2019-03-27T13:08:24.874Z,15009
2019-03-27T13:09:24.980Z,15364
2019-03-27T13:10:25.061Z,13905
2019-03-27T13:11:25.099Z,12452
2019-03-27T13:12:26.137Z,11949
2019-03-27T13:13:25.182Z,13772
2019-03-27T13:14:25.263Z,25320
2019-03-27T13:15:25.359Z,23288
2019-03-27T13:16:25.416Z,21112
2019-03-27T13:17:25.503Z,21336
2019-03-27T13:18:25.595Z,22936
2019-03-27T13:19:25.719Z,24288
2019-03-27T13:20:25.762Z,23176
2019-03-27T13:21:26.905Z,22128
2019-03-27T13:22:25.846Z,21936
2019-03-27T13:23:25.926Z,22936
2019-03-27T13:24:26.020Z,22856
2019-03-27T13:25:26.072Z,20416
2019-03-27T13:26:26.122Z,21760
2019-03-27T13:27:26.170Z,25896
2019-03-27T13:28:26.250Z,29552
2019-03-27T13:29:27.317Z,41728
2019-03-27T13:30:26.375Z,37224
2019-03-27T13:31:26.436Z,38336
2019-03-27T13:32:26.485Z,32720
2019-03-27T13:33:26.547Z,34288
2019-03-27T13:34:26.635Z,35416
2019-03-27T13:35:26.702Z,27336
2019-03-27T13:36:26.748Z,26168
2019-03-27T13:37:26.792Z,40320
2019-03-27T13:38:27.856Z,50504
2019-03-27T13:39:26.924Z,56312
2019-03-27T13:40:27.002Z,34456
2019-03-27T13:41:27.062Z,17704
2019-03-27T13:42:27.120Z,16155